sensor_id;sensor_type;location;lat;lon;timestamp;P1;durP1;ratioP1;P2;durP2;ratioP2
38425;SDS011;24210;51.460;6.148;2022-07-03T14:53:22;1.02;;;0.40;;
38425;SDS011;24210;51.460;6.148;2022-07-03T14:55:48;2.67;;;0.40;;
38425;SDS011;24210;51.460;6.148;2022-07-03T14:58:15;2.05;;;0.20;;
38425;SDS011;24210;51.460;6.148;2022-07-03T15:00:42;0.68;;;0.17;;
38425;SDS011;24210;51.460;6.148;2022-07-03T15:03:15;2.33;;;0.20;;
38425;SDS011;24210;51.460;6.148;2022-07-03T15:05:40;2.60;;;0.20;;
38425;SDS011;24210;51.460;6.148;2022-07-03T15:10:50;0.43;;;0.43;;
38425;SDS011;24210;51.460;6.148;2022-07-03T15:13:16;1.30;;;0.30;;
38425;SDS011;24210;51.460;6.148;2022-07-03T15:15:42;1.03;;;0.10;;
38425;SDS011;24210;51.460;6.148;2022-07-03T15:18:10;3.65;;;0.28;;
38425;SDS011;24210;51.460;6.148;2022-07-03T15:20:37;0.77;;;0.13;;
38425;SDS011;24210;51.460;6.148;2022-07-03T15:23:03;0.60;;;0.30;;
38425;SDS011;24210;51.460;6.148;2022-07-03T15:25:29;2.05;;;0.20;;
38425;SDS011;24210;51.460;6.148;2022-07-03T15:27:55;3.20;;;0.28;;
38425;SDS011;24210;51.460;6.148;2022-07-03T15:30:21;0.97;;;0.40;;
38425;SDS011;24210;51.460;6.148;2022-07-03T15:32:47;2.80;;;0.28;;
38425;SDS011;24210;51.460;6.148;2022-07-03T15:35:13;1.75;;;0.15;;
38425;SDS011;24210;51.460;6.148;2022-07-03T15:40:28;0.40;;;0.10;;
38425;SDS011;24210;51.460;6.148;2022-07-03T15:43:03;2.33;;;0.22;;
38425;SDS011;24210;51.460;6.148;2022-07-03T15:53:21;4.07;;;0.45;;
38425;SDS011;24210;51.460;6.148;2022-07-03T15:55:50;1.25;;;1.00;;
38425;SDS011;24210;51.460;6.148;2022-07-03T15:58:18;1.38;;;1.02;;
38425;SDS011;24210;51.460;6.148;2022-07-03T16:00:47;1.65;;;0.70;;
38425;SDS011;24210;51.460;6.148;2022-07-03T16:03:32;1.98;;;0.50;;
38425;SDS011;24210;51.460;6.148;2022-07-03T16:06:03;1.98;;;0.73;;
38425;SDS011;24210;51.460;6.148;2022-07-03T16:08:28;2.85;;;0.93;;
38425;SDS011;24210;51.460;6.148;2022-07-03T16:10:54;4.83;;;1.00;;
38425;SDS011;24210;51.460;6.148;2022-07-03T16:13:24;3.28;;;0.95;;
38425;SDS011;24210;51.460;6.148;2022-07-03T16:15:49;1.17;;;0.70;;
38425;SDS011;24210;51.460;6.148;2022-07-03T16:18:16;3.35;;;1.30;;
38425;SDS011;24210;51.460;6.148;2022-07-03T16:20:41;3.70;;;0.73;;
38425;SDS011;24210;51.460;6.148;2022-07-03T16:23:09;3.70;;;1.67;;
38425;SDS011;24210;51.460;6.148;2022-07-03T16:25:35;1.92;;;0.80;;
38425;SDS011;24210;51.460;6.148;2022-07-03T16:28:01;2.25;;;0.77;;
38425;SDS011;24210;51.460;6.148;2022-07-03T16:30:26;3.53;;;0.80;;
38425;SDS011;24210;51.460;6.148;2022-07-03T16:32:52;1.20;;;0.70;;
38425;SDS011;24210;51.460;6.148;2022-07-03T16:35:28;4.47;;;0.73;;
38425;SDS011;24210;51.460;6.148;2022-07-03T16:38:01;3.42;;;0.95;;
38425;SDS011;24210;51.460;6.148;2022-07-03T16:40:26;4.45;;;0.65;;
38425;SDS011;24210;51.460;6.148;2022-07-03T16:42:52;3.70;;;1.27;;
38425;SDS011;24210;51.460;6.148;2022-07-03T16:45:18;2.00;;;0.70;;
38425;SDS011;24210;51.460;6.148;2022-07-03T16:47:44;2.22;;;0.82;;
38425;SDS011;24210;51.460;6.148;2022-07-03T16:50:11;0.63;;;0.63;;
38425;SDS011;24210;51.460;6.148;2022-07-03T16:52:37;3.90;;;0.70;;
38425;SDS011;24210;51.460;6.148;2022-07-03T16:55:04;2.45;;;0.50;;
38425;SDS011;24210;51.460;6.148;2022-07-03T16:57:30;2.70;;;0.53;;
38425;SDS011;24210;51.460;6.148;2022-07-03T16:59:56;2.13;;;0.60;;
38425;SDS011;24210;51.460;6.148;2022-07-03T17:02:21;2.07;;;0.60;;
38425;SDS011;24210;51.460;6.148;2022-07-03T17:04:47;1.15;;;0.77;;
38425;SDS011;24210;51.460;6.148;2022-07-03T17:07:13;0.90;;;0.38;;
38425;SDS011;24210;51.460;6.148;2022-07-03T17:09:40;2.17;;;0.63;;
38425;SDS011;24210;51.460;6.148;2022-07-03T17:12:05;0.90;;;0.33;;
38425;SDS011;24210;51.460;6.148;2022-07-03T17:14:31;3.55;;;0.68;;
38425;SDS011;24210;51.460;6.148;2022-07-03T17:16:57;2.33;;;0.20;;
38425;SDS011;24210;51.460;6.148;2022-07-03T17:19:25;2.58;;;0.60;;
38425;SDS011;24210;51.460;6.148;2022-07-03T17:21:50;4.07;;;0.93;;
38425;SDS011;24210;51.460;6.148;2022-07-03T17:24:17;2.87;;;0.77;;
38425;SDS011;24210;51.460;6.148;2022-07-03T17:26:44;1.10;;;0.43;;
38425;SDS011;24210;51.460;6.148;2022-07-03T17:29:17;1.50;;;0.70;;
38425;SDS011;24210;51.460;6.148;2022-07-03T17:31:43;2.20;;;0.60;;
38425;SDS011;24210;51.460;6.148;2022-07-03T17:34:09;1.23;;;0.40;;
38425;SDS011;24210;51.460;6.148;2022-07-03T17:36:35;1.57;;;0.40;;
38425;SDS011;24210;51.460;6.148;2022-07-03T17:39:00;1.75;;;0.93;;
38425;SDS011;24210;51.460;6.148;2022-07-03T17:41:27;1.83;;;0.60;;
38425;SDS011;24210;51.460;6.148;2022-07-03T17:46:17;0.52;;;0.25;;
38425;SDS011;24210;51.460;6.148;2022-07-03T17:48:43;2.55;;;0.30;;
38425;SDS011;24210;51.460;6.148;2022-07-03T17:51:10;1.20;;;0.60;;
38425;SDS011;24210;51.460;6.148;2022-07-03T17:53:36;1.95;;;0.20;;
38425;SDS011;24210;51.460;6.148;2022-07-03T17:56:02;4.82;;;0.65;;
38425;SDS011;24210;51.460;6.148;2022-07-03T17:58:28;0.57;;;0.57;;
38425;SDS011;24210;51.460;6.148;2022-07-03T18:00:53;3.10;;;0.53;;
38425;SDS011;24210;51.460;6.148;2022-07-03T18:03:19;1.20;;;0.80;;
38425;SDS011;24210;51.460;6.148;2022-07-03T18:05:45;0.60;;;0.50;;
38425;SDS011;24210;51.460;6.148;2022-07-03T18:15:37;0.50;;;0.20;;
38425;SDS011;24210;51.460;6.148;2022-07-03T18:18:05;2.55;;;0.80;;
38425;SDS011;24210;51.460;6.148;2022-07-03T18:20:32;2.08;;;0.50;;
38425;SDS011;24210;51.460;6.148;2022-07-03T18:22:57;0.83;;;0.30;;
38425;SDS011;24210;51.460;6.148;2022-07-03T18:25:24;2.80;;;0.70;;
38425;SDS011;24210;51.460;6.148;2022-07-03T18:27:49;2.37;;;0.40;;
38425;SDS011;24210;51.460;6.148;2022-07-03T18:30:15;3.33;;;0.30;;
38425;SDS011;24210;51.460;6.148;2022-07-03T18:32:41;3.77;;;0.70;;
38425;SDS011;24210;51.460;6.148;2022-07-03T18:35:06;1.80;;;0.80;;
38425;SDS011;24210;51.460;6.148;2022-07-03T18:37:33;3.35;;;0.70;;
38425;SDS011;24210;51.460;6.148;2022-07-03T18:39:58;3.60;;;0.47;;
38425;SDS011;24210;51.460;6.148;2022-07-03T18:42:24;0.93;;;0.30;;
38425;SDS011;24210;51.460;6.148;2022-07-03T18:44:50;0.63;;;0.33;;
38425;SDS011;24210;51.460;6.148;2022-07-03T18:47:15;2.03;;;0.37;;
38425;SDS011;24210;51.460;6.148;2022-07-03T18:49:40;2.00;;;0.30;;
38425;SDS011;24210;51.460;6.148;2022-07-03T18:52:07;0.95;;;0.10;;
38425;SDS011;24210;51.460;6.148;2022-07-03T18:54:43;1.75;;;0.20;;
38425;SDS011;24210;51.460;6.148;2022-07-03T19:02:13;3.53;;;0.20;;
38425;SDS011;24210;51.460;6.148;2022-07-03T19:04:46;1.58;;;0.30;;
38425;SDS011;24210;51.460;6.148;2022-07-03T19:07:13;2.38;;;0.70;;
38425;SDS011;24210;51.460;6.148;2022-07-03T19:09:45;2.60;;;0.65;;
38425;SDS011;24210;51.460;6.148;2022-07-03T19:12:13;1.25;;;0.45;;
38425;SDS011;24210;51.460;6.148;2022-07-03T19:14:41;2.72;;;0.68;;
38425;SDS011;24210;51.460;6.148;2022-07-03T19:17:08;1.10;;;0.82;;
38425;SDS011;24210;51.460;6.148;2022-07-03T19:19:35;1.30;;;0.40;;
38425;SDS011;24210;51.460;6.148;2022-07-03T19:22:00;1.50;;;0.20;;
38425;SDS011;24210;51.460;6.148;2022-07-03T19:24:26;2.23;;;0.30;;
38425;SDS011;24210;51.460;6.148;2022-07-03T19:26:52;2.25;;;0.30;;
38425;SDS011;24210;51.460;6.148;2022-07-03T19:29:17;0.97;;;0.13;;
38425;SDS011;24210;51.460;6.148;2022-07-03T19:31:42;1.93;;;0.20;;
38425;SDS011;24210;51.460;6.148;2022-07-03T19:34:08;1.50;;;0.45;;
38425;SDS011;24210;51.460;6.148;2022-07-03T19:36:34;3.03;;;0.37;;
38425;SDS011;24210;51.460;6.148;2022-07-03T19:38:59;4.93;;;0.43;;
38425;SDS011;24210;51.460;6.148;2022-07-03T19:41:24;2.57;;;0.57;;
38425;SDS011;24210;51.460;6.148;2022-07-03T19:43:49;3.37;;;0.50;;
38425;SDS011;24210;51.460;6.148;2022-07-03T19:46:14;2.83;;;0.50;;
38425;SDS011;24210;51.460;6.148;2022-07-03T19:48:40;2.13;;;0.43;;
38425;SDS011;24210;51.460;6.148;2022-07-03T19:51:05;2.70;;;1.00;;
38425;SDS011;24210;51.460;6.148;2022-07-03T19:53:30;1.70;;;0.50;;
38425;SDS011;24210;51.460;6.148;2022-07-03T19:55:57;0.93;;;0.30;;
38425;SDS011;24210;51.460;6.148;2022-07-03T19:58:22;1.80;;;0.20;;
38425;SDS011;24210;51.460;6.148;2022-07-03T20:00:47;2.90;;;0.30;;
38425;SDS011;24210;51.460;6.148;2022-07-03T20:03:13;4.40;;;0.73;;
38425;SDS011;24210;51.460;6.148;2022-07-03T20:05:38;0.40;;;0.10;;
38425;SDS011;24210;51.460;6.148;2022-07-03T20:08:04;0.45;;;0.20;;
38425;SDS011;24210;51.460;6.148;2022-07-03T20:10:29;3.03;;;0.43;;
38425;SDS011;24210;51.460;6.148;2022-07-03T20:12:55;8.60;;;0.57;;
38425;SDS011;24210;51.460;6.148;2022-07-03T20:15:21;2.40;;;0.47;;
38425;SDS011;24210;51.460;6.148;2022-07-03T20:17:46;1.13;;;0.23;;
38425;SDS011;24210;51.460;6.148;2022-07-03T20:20:11;2.83;;;0.30;;
38425;SDS011;24210;51.460;6.148;2022-07-03T20:22:37;2.33;;;0.50;;
38425;SDS011;24210;51.460;6.148;2022-07-03T20:25:02;1.83;;;0.20;;
38425;SDS011;24210;51.460;6.148;2022-07-03T20:27:28;2.00;;;0.30;;
38425;SDS011;24210;51.460;6.148;2022-07-03T20:29:53;1.23;;;0.40;;
38425;SDS011;24210;51.460;6.148;2022-07-03T20:32:19;2.43;;;0.40;;
38425;SDS011;24210;51.460;6.148;2022-07-03T20:34:44;0.55;;;0.30;;
38425;SDS011;24210;51.460;6.148;2022-07-03T20:37:10;2.30;;;0.50;;
38425;SDS011;24210;51.460;6.148;2022-07-03T20:39:40;0.50;;;0.15;;
38425;SDS011;24210;51.460;6.148;2022-07-03T20:42:06;1.90;;;0.30;;
38425;SDS011;24210;51.460;6.148;2022-07-03T20:44:32;3.58;;;0.45;;
38425;SDS011;24210;51.460;6.148;2022-07-03T20:46:57;2.15;;;1.02;;
38425;SDS011;24210;51.460;6.148;2022-07-03T20:49:22;1.27;;;0.40;;
38425;SDS011;24210;51.460;6.148;2022-07-03T20:51:47;1.43;;;0.73;;
38425;SDS011;24210;51.460;6.148;2022-07-03T20:54:13;1.27;;;0.33;;
38425;SDS011;24210;51.460;6.148;2022-07-03T20:56:38;3.93;;;0.20;;
38425;SDS011;24210;51.460;6.148;2022-07-03T20:59:03;1.23;;;0.33;;
38425;SDS011;24210;51.460;6.148;2022-07-03T21:01:28;2.77;;;0.60;;
38425;SDS011;24210;51.460;6.148;2022-07-03T21:03:54;1.93;;;0.80;;
38425;SDS011;24210;51.460;6.148;2022-07-03T21:06:19;2.70;;;0.90;;
38425;SDS011;24210;51.460;6.148;2022-07-03T21:08:49;0.60;;;0.52;;
38425;SDS011;24210;51.460;6.148;2022-07-03T21:11:15;2.40;;;0.50;;
38425;SDS011;24210;51.460;6.148;2022-07-03T21:13:59;1.75;;;1.17;;
38425;SDS011;24210;51.460;6.148;2022-07-03T21:16:25;2.38;;;0.60;;
38425;SDS011;24210;51.460;6.148;2022-07-03T21:18:50;2.00;;;0.87;;
38425;SDS011;24210;51.460;6.148;2022-07-03T21:21:16;1.17;;;0.50;;
38425;SDS011;24210;51.460;6.148;2022-07-03T21:23:41;2.30;;;0.60;;
38425;SDS011;24210;51.460;6.148;2022-07-03T21:26:06;1.87;;;1.07;;
38425;SDS011;24210;51.460;6.148;2022-07-03T21:28:32;3.10;;;0.70;;
38425;SDS011;24210;51.460;6.148;2022-07-03T21:30:57;2.93;;;1.07;;
38425;SDS011;24210;51.460;6.148;2022-07-03T21:33:22;3.17;;;0.97;;
38425;SDS011;24210;51.460;6.148;2022-07-03T21:35:47;2.20;;;0.80;;
38425;SDS011;24210;51.460;6.148;2022-07-03T21:38:13;3.97;;;0.63;;
38425;SDS011;24210;51.460;6.148;2022-07-03T21:40:38;2.10;;;1.40;;
38425;SDS011;24210;51.460;6.148;2022-07-03T21:43:03;1.27;;;0.77;;
38425;SDS011;24210;51.460;6.148;2022-07-03T21:45:28;3.10;;;1.53;;
38425;SDS011;24210;51.460;6.148;2022-07-03T21:47:54;2.40;;;0.80;;
38425;SDS011;24210;51.460;6.148;2022-07-03T21:50:19;0.87;;;0.50;;
38425;SDS011;24210;51.460;6.148;2022-07-03T21:52:44;3.97;;;1.23;;
38425;SDS011;24210;51.460;6.148;2022-07-03T21:55:09;3.70;;;0.80;;
38425;SDS011;24210;51.460;6.148;2022-07-03T21:57:35;2.50;;;0.60;;
38425;SDS011;24210;51.460;6.148;2022-07-03T22:00:00;2.33;;;0.77;;
38425;SDS011;24210;51.460;6.148;2022-07-03T22:02:25;2.07;;;0.70;;
38425;SDS011;24210;51.460;6.148;2022-07-03T22:04:50;1.20;;;0.50;;
38425;SDS011;24210;51.460;6.148;2022-07-03T22:07:15;2.03;;;0.60;;
38425;SDS011;24210;51.460;6.148;2022-07-03T22:09:41;1.17;;;0.67;;
38425;SDS011;24210;51.460;6.148;2022-07-03T22:12:09;3.17;;;1.23;;
38425;SDS011;24210;51.460;6.148;2022-07-03T22:14:53;1.80;;;0.80;;
38425;SDS011;24210;51.460;6.148;2022-07-03T22:17:19;1.47;;;0.60;;
38425;SDS011;24210;51.460;6.148;2022-07-03T22:19:44;3.13;;;0.77;;
38425;SDS011;24210;51.460;6.148;2022-07-03T22:22:09;1.33;;;1.03;;
38425;SDS011;24210;51.460;6.148;2022-07-03T22:24:34;3.17;;;0.83;;
38425;SDS011;24210;51.460;6.148;2022-07-03T22:27:02;2.25;;;1.45;;
38425;SDS011;24210;51.460;6.148;2022-07-03T22:29:27;1.23;;;1.13;;
38425;SDS011;24210;51.460;6.148;2022-07-03T22:31:52;1.53;;;1.40;;
38425;SDS011;24210;51.460;6.148;2022-07-03T22:34:18;2.03;;;1.13;;
38425;SDS011;24210;51.460;6.148;2022-07-03T22:36:43;4.53;;;1.40;;
38425;SDS011;24210;51.460;6.148;2022-07-03T22:39:08;4.97;;;1.47;;
38425;SDS011;24210;51.460;6.148;2022-07-03T22:41:33;4.17;;;1.43;;
38425;SDS011;24210;51.460;6.148;2022-07-03T22:43:59;2.33;;;1.00;;
38425;SDS011;24210;51.460;6.148;2022-07-03T22:46:24;3.20;;;0.87;;
38425;SDS011;24210;51.460;6.148;2022-07-03T22:48:51;6.35;;;2.10;;
38425;SDS011;24210;51.460;6.148;2022-07-03T22:51:16;1.20;;;1.10;;
38425;SDS011;24210;51.460;6.148;2022-07-03T22:53:41;5.73;;;1.67;;
38425;SDS011;24210;51.460;6.148;2022-07-03T22:56:06;4.73;;;1.00;;
38425;SDS011;24210;51.460;6.148;2022-07-03T22:58:31;2.23;;;1.30;;
38425;SDS011;24210;51.460;6.148;2022-07-03T23:00:57;1.97;;;1.07;;
38425;SDS011;24210;51.460;6.148;2022-07-03T23:03:22;3.90;;;1.37;;
38425;SDS011;24210;51.460;6.148;2022-07-03T23:05:47;3.23;;;1.37;;
38425;SDS011;24210;51.460;6.148;2022-07-03T23:08:12;3.60;;;1.50;;
38425;SDS011;24210;51.460;6.148;2022-07-03T23:10:37;2.97;;;1.33;;
38425;SDS011;24210;51.460;6.148;2022-07-03T23:13:03;2.83;;;1.30;;
38425;SDS011;24210;51.460;6.148;2022-07-03T23:15:28;4.80;;;1.57;;
38425;SDS011;24210;51.460;6.148;2022-07-03T23:17:53;0.97;;;0.87;;
38425;SDS011;24210;51.460;6.148;2022-07-03T23:20:18;4.20;;;1.10;;
38425;SDS011;24210;51.460;6.148;2022-07-03T23:22:43;1.47;;;1.00;;
38425;SDS011;24210;51.460;6.148;2022-07-03T23:25:09;3.93;;;1.03;;
38425;SDS011;24210;51.460;6.148;2022-07-03T23:27:34;3.03;;;1.80;;
38425;SDS011;24210;51.460;6.148;2022-07-03T23:29:59;4.30;;;1.70;;
38425;SDS011;24210;51.460;6.148;2022-07-03T23:32:24;3.03;;;1.20;;
38425;SDS011;24210;51.460;6.148;2022-07-03T23:34:50;4.63;;;1.30;;
38425;SDS011;24210;51.460;6.148;2022-07-03T23:37:15;2.00;;;1.40;;
38425;SDS011;24210;51.460;6.148;2022-07-03T23:39:40;5.13;;;1.40;;
38425;SDS011;24210;51.460;6.148;2022-07-03T23:42:05;3.03;;;1.30;;
38425;SDS011;24210;51.460;6.148;2022-07-03T23:44:30;3.93;;;1.37;;
38425;SDS011;24210;51.460;6.148;2022-07-03T23:46:56;2.53;;;1.30;;
38425;SDS011;24210;51.460;6.148;2022-07-03T23:49:21;3.57;;;1.93;;
38425;SDS011;24210;51.460;6.148;2022-07-03T23:52:05;2.97;;;1.42;;
38425;SDS011;24210;51.460;6.148;2022-07-03T23:54:30;3.63;;;1.63;;
38425;SDS011;24210;51.460;6.148;2022-07-03T23:56:55;3.50;;;1.37;;
38425;SDS011;24210;51.460;6.148;2022-07-03T23:59:20;6.70;;;1.80;;
